sensor_id;sensor_type;location;lat;lon;timestamp;temperature;humidity
18575;DHT22;9417;16.484;102.872;2023-07-22T00:01:25;26.10;99.90
18575;DHT22;9417;16.484;102.872;2023-07-22T00:03:33;26.20;99.90
18575;DHT22;9417;16.484;102.872;2023-07-22T00:05:41;26.20;99.90
18575;DHT22;9417;16.484;102.872;2023-07-22T00:07:49;26.20;99.90
18575;DHT22;9417;16.484;102.872;2023-07-22T00:09:56;26.20;99.90
18575;DHT22;9417;16.484;102.872;2023-07-22T00:12:04;26.30;99.90
18575;DHT22;9417;16.484;102.872;2023-07-22T00:14:11;26.30;99.90
18575;DHT22;9417;16.484;102.872;2023-07-22T00:16:20;26.30;99.90
18575;DHT22;9417;16.484;102.872;2023-07-22T00:18:29;26.20;99.90
18575;DHT22;9417;16.484;102.872;2023-07-22T00:20:36;26.30;99.90
18575;DHT22;9417;16.484;102.872;2023-07-22T00:22:43;26.30;99.90
18575;DHT22;9417;16.484;102.872;2023-07-22T00:24:50;26.40;99.90
18575;DHT22;9417;16.484;102.872;2023-07-22T00:26:56;26.40;99.90
18575;DHT22;9417;16.484;102.872;2023-07-22T00:29:04;26.40;99.90
18575;DHT22;9417;16.484;102.872;2023-07-22T00:31:11;26.40;99.90
18575;DHT22;9417;16.484;102.872;2023-07-22T00:33:21;26.50;99.90
18575;DHT22;9417;16.484;102.872;2023-07-22T00:35:29;26.60;99.90
18575;DHT22;9417;16.484;102.872;2023-07-22T00:37:37;26.70;99.90
18575;DHT22;9417;16.484;102.872;2023-07-22T00:39:44;26.70;99.90
18575;DHT22;9417;16.484;102.872;2023-07-22T00:41:51;26.70;99.90
18575;DHT22;9417;16.484;102.872;2023-07-22T00:43:58;26.80;99.70
18575;DHT22;9417;16.484;102.872;2023-07-22T00:46:06;26.80;98.80
18575;DHT22;9417;16.484;102.872;2023-07-22T00:48:14;26.80;98.20
18575;DHT22;9417;16.484;102.872;2023-07-22T00:50:25;26.90;97.90
18575;DHT22;9417;16.484;102.872;2023-07-22T00:52:32;26.90;98.10
18575;DHT22;9417;16.484;102.872;2023-07-22T00:54:40;26.90;98.30
18575;DHT22;9417;16.484;102.872;2023-07-22T00:56:48;27.00;98.20
18575;DHT22;9417;16.484;102.872;2023-07-22T00:58:56;27.10;97.60
18575;DHT22;9417;16.484;102.872;2023-07-22T01:01:03;27.10;97.30
18575;DHT22;9417;16.484;102.872;2023-07-22T01:03:09;27.20;97.60
18575;DHT22;9417;16.484;102.872;2023-07-22T01:05:17;27.30;97.60
18575;DHT22;9417;16.484;102.872;2023-07-22T01:07:27;27.30;96.50
18575;DHT22;9417;16.484;102.872;2023-07-22T01:09:37;27.30;95.30
18575;DHT22;9417;16.484;102.872;2023-07-22T01:11:45;27.30;94.90
18575;DHT22;9417;16.484;102.872;2023-07-22T01:13:53;27.20;95.60
18575;DHT22;9417;16.484;102.872;2023-07-22T01:16:04;27.20;95.90
18575;DHT22;9417;16.484;102.872;2023-07-22T01:18:12;27.20;95.90
18575;DHT22;9417;16.484;102.872;2023-07-22T01:20:19;27.10;96.30
18575;DHT22;9417;16.484;102.872;2023-07-22T01:22:30;27.10;95.50
18575;DHT22;9417;16.484;102.872;2023-07-22T01:24:40;27.10;96.00
18575;DHT22;9417;16.484;102.872;2023-07-22T01:26:47;27.10;95.40
18575;DHT22;9417;16.484;102.872;2023-07-22T01:29:03;27.10;95.30
18575;DHT22;9417;16.484;102.872;2023-07-22T01:31:11;27.20;95.80
18575;DHT22;9417;16.484;102.872;2023-07-22T01:33:18;27.30;96.00
18575;DHT22;9417;16.484;102.872;2023-07-22T01:35:25;27.30;95.60
18575;DHT22;9417;16.484;102.872;2023-07-22T01:37:33;27.50;94.10
18575;DHT22;9417;16.484;102.872;2023-07-22T01:39:42;27.50;94.00
18575;DHT22;9417;16.484;102.872;2023-07-22T01:41:49;27.70;93.80
18575;DHT22;9417;16.484;102.872;2023-07-22T01:43:56;27.80;93.50
18575;DHT22;9417;16.484;102.872;2023-07-22T01:46:04;27.80;93.00
18575;DHT22;9417;16.484;102.872;2023-07-22T01:48:12;27.80;92.70
18575;DHT22;9417;16.484;102.872;2023-07-22T01:50:20;27.80;91.50
18575;DHT22;9417;16.484;102.872;2023-07-22T01:52:28;27.80;91.70
18575;DHT22;9417;16.484;102.872;2023-07-22T01:54:35;27.80;91.80
18575;DHT22;9417;16.484;102.872;2023-07-22T01:56:44;27.80;91.90
18575;DHT22;9417;16.484;102.872;2023-07-22T01:58:51;27.90;91.70
18575;DHT22;9417;16.484;102.872;2023-07-22T02:00:58;27.90;91.40
18575;DHT22;9417;16.484;102.872;2023-07-22T02:03:05;28.00;91.00
18575;DHT22;9417;16.484;102.872;2023-07-22T02:05:13;28.10;90.80
18575;DHT22;9417;16.484;102.872;2023-07-22T02:07:20;28.20;90.70
18575;DHT22;9417;16.484;102.872;2023-07-22T02:09:32;28.30;90.80
18575;DHT22;9417;16.484;102.872;2023-07-22T02:11:39;28.40;90.30
18575;DHT22;9417;16.484;102.872;2023-07-22T02:13:49;28.50;90.40
18575;DHT22;9417;16.484;102.872;2023-07-22T02:15:56;28.60;90.30
18575;DHT22;9417;16.484;102.872;2023-07-22T02:18:04;28.70;89.90
18575;DHT22;9417;16.484;102.872;2023-07-22T02:20:11;28.70;89.90
18575;DHT22;9417;16.484;102.872;2023-07-22T02:22:19;28.80;89.30
18575;DHT22;9417;16.484;102.872;2023-07-22T02:24:26;28.90;89.20
18575;DHT22;9417;16.484;102.872;2023-07-22T02:26:33;29.00;89.00
18575;DHT22;9417;16.484;102.872;2023-07-22T02:28:40;29.10;89.10
18575;DHT22;9417;16.484;102.872;2023-07-22T02:30:50;29.10;88.30
18575;DHT22;9417;16.484;102.872;2023-07-22T02:32:58;29.20;87.00
18575;DHT22;9417;16.484;102.872;2023-07-22T02:35:06;29.30;86.80
18575;DHT22;9417;16.484;102.872;2023-07-22T02:37:13;29.30;87.00
18575;DHT22;9417;16.484;102.872;2023-07-22T02:39:20;29.20;87.10
18575;DHT22;9417;16.484;102.872;2023-07-22T02:41:27;29.20;87.10
18575;DHT22;9417;16.484;102.872;2023-07-22T02:43:35;29.20;87.00
18575;DHT22;9417;16.484;102.872;2023-07-22T02:45:42;29.20;86.60
18575;DHT22;9417;16.484;102.872;2023-07-22T02:47:51;29.20;86.90
18575;DHT22;9417;16.484;102.872;2023-07-22T02:49:59;29.20;86.70
18575;DHT22;9417;16.484;102.872;2023-07-22T02:52:06;29.20;86.90
18575;DHT22;9417;16.484;102.872;2023-07-22T02:54:14;29.20;86.80
18575;DHT22;9417;16.484;102.872;2023-07-22T02:56:22;29.20;86.60
18575;DHT22;9417;16.484;102.872;2023-07-22T02:58:30;29.20;86.40
18575;DHT22;9417;16.484;102.872;2023-07-22T03:00:38;29.10;86.20
18575;DHT22;9417;16.484;102.872;2023-07-22T03:02:45;29.10;86.30
18575;DHT22;9417;16.484;102.872;2023-07-22T03:04:54;29.10;86.30
18575;DHT22;9417;16.484;102.872;2023-07-22T03:07:02;29.10;86.20
18575;DHT22;9417;16.484;102.872;2023-07-22T03:09:11;29.10;86.40
18575;DHT22;9417;16.484;102.872;2023-07-22T03:11:18;29.10;86.50
18575;DHT22;9417;16.484;102.872;2023-07-22T03:13:27;29.20;86.30
18575;DHT22;9417;16.484;102.872;2023-07-22T03:15:34;29.20;86.30
18575;DHT22;9417;16.484;102.872;2023-07-22T03:17:40;29.30;86.60
18575;DHT22;9417;16.484;102.872;2023-07-22T03:19:48;29.30;86.70
18575;DHT22;9417;16.484;102.872;2023-07-22T03:21:57;29.40;86.70
18575;DHT22;9417;16.484;102.872;2023-07-22T03:24:05;29.50;86.50
18575;DHT22;9417;16.484;102.872;2023-07-22T03:26:13;29.50;86.20
18575;DHT22;9417;16.484;102.872;2023-07-22T03:28:20;29.50;85.60
18575;DHT22;9417;16.484;102.872;2023-07-22T03:30:27;29.60;85.50
18575;DHT22;9417;16.484;102.872;2023-07-22T03:32:34;29.60;85.60
18575;DHT22;9417;16.484;102.872;2023-07-22T03:34:42;29.70;85.00
18575;DHT22;9417;16.484;102.872;2023-07-22T03:36:49;29.90;84.30
18575;DHT22;9417;16.484;102.872;2023-07-22T03:38:58;30.10;83.50
18575;DHT22;9417;16.484;102.872;2023-07-22T03:41:05;30.20;83.40
18575;DHT22;9417;16.484;102.872;2023-07-22T03:43:12;30.40;83.10
18575;DHT22;9417;16.484;102.872;2023-07-22T03:45:20;30.50;82.10
18575;DHT22;9417;16.484;102.872;2023-07-22T03:47:27;30.50;82.50
18575;DHT22;9417;16.484;102.872;2023-07-22T03:49:35;30.60;82.20
18575;DHT22;9417;16.484;102.872;2023-07-22T03:51:42;30.80;82.70
18575;DHT22;9417;16.484;102.872;2023-07-22T03:53:49;30.80;81.50
18575;DHT22;9417;16.484;102.872;2023-07-22T03:55:58;30.80;81.60
18575;DHT22;9417;16.484;102.872;2023-07-22T03:58:05;30.80;81.40
18575;DHT22;9417;16.484;102.872;2023-07-22T04:00:13;30.80;80.90
18575;DHT22;9417;16.484;102.872;2023-07-22T04:02:20;30.90;80.80
18575;DHT22;9417;16.484;102.872;2023-07-22T04:04:28;30.90;80.50
18575;DHT22;9417;16.484;102.872;2023-07-22T04:06:35;30.90;80.80
18575;DHT22;9417;16.484;102.872;2023-07-22T04:08:42;30.90;80.30
18575;DHT22;9417;16.484;102.872;2023-07-22T04:10:53;30.90;80.20
18575;DHT22;9417;16.484;102.872;2023-07-22T04:13:02;30.90;80.60
18575;DHT22;9417;16.484;102.872;2023-07-22T04:15:10;30.90;80.30
18575;DHT22;9417;16.484;102.872;2023-07-22T04:17:17;30.90;80.00
18575;DHT22;9417;16.484;102.872;2023-07-22T04:19:25;31.00;81.40
18575;DHT22;9417;16.484;102.872;2023-07-22T04:21:34;31.10;80.90
18575;DHT22;9417;16.484;102.872;2023-07-22T04:23:41;31.20;80.60
18575;DHT22;9417;16.484;102.872;2023-07-22T04:25:48;31.30;80.00
18575;DHT22;9417;16.484;102.872;2023-07-22T04:27:56;31.40;79.00
18575;DHT22;9417;16.484;102.872;2023-07-22T04:30:05;31.40;78.70
18575;DHT22;9417;16.484;102.872;2023-07-22T04:32:11;31.40;79.10
18575;DHT22;9417;16.484;102.872;2023-07-22T04:34:19;31.40;79.40
18575;DHT22;9417;16.484;102.872;2023-07-22T04:36:26;31.50;80.20
18575;DHT22;9417;16.484;102.872;2023-07-22T04:38:34;31.40;79.70
18575;DHT22;9417;16.484;102.872;2023-07-22T04:40:43;31.50;78.90
18575;DHT22;9417;16.484;102.872;2023-07-22T04:42:51;31.50;79.20
18575;DHT22;9417;16.484;102.872;2023-07-22T04:44:58;31.70;79.20
18575;DHT22;9417;16.484;102.872;2023-07-22T04:47:09;31.80;79.10
18575;DHT22;9417;16.484;102.872;2023-07-22T04:49:16;31.90;78.20
18575;DHT22;9417;16.484;102.872;2023-07-22T04:51:23;32.00;77.50
18575;DHT22;9417;16.484;102.872;2023-07-22T04:53:30;32.10;77.10
18575;DHT22;9417;16.484;102.872;2023-07-22T04:55:38;32.00;77.10
18575;DHT22;9417;16.484;102.872;2023-07-22T04:57:45;32.00;78.00
18575;DHT22;9417;16.484;102.872;2023-07-22T04:59:52;32.00;78.70
18575;DHT22;9417;16.484;102.872;2023-07-22T05:02:00;32.00;78.70
18575;DHT22;9417;16.484;102.872;2023-07-22T05:04:09;32.10;78.60
18575;DHT22;9417;16.484;102.872;2023-07-22T05:06:16;32.20;78.90
18575;DHT22;9417;16.484;102.872;2023-07-22T05:08:24;32.20;78.00
18575;DHT22;9417;16.484;102.872;2023-07-22T05:10:31;32.30;77.50
18575;DHT22;9417;16.484;102.872;2023-07-22T05:12:38;32.10;77.10
18575;DHT22;9417;16.484;102.872;2023-07-22T05:14:45;32.00;78.30
18575;DHT22;9417;16.484;102.872;2023-07-22T05:16:53;31.70;77.70
18575;DHT22;9417;16.484;102.872;2023-07-22T05:19:00;31.60;78.90
18575;DHT22;9417;16.484;102.872;2023-07-22T05:21:11;31.70;79.00
18575;DHT22;9417;16.484;102.872;2023-07-22T05:23:19;32.00;79.40
18575;DHT22;9417;16.484;102.872;2023-07-22T05:25:25;31.90;78.70
18575;DHT22;9417;16.484;102.872;2023-07-22T05:27:32;31.70;78.60
18575;DHT22;9417;16.484;102.872;2023-07-22T05:29:38;31.70;79.10
18575;DHT22;9417;16.484;102.872;2023-07-22T05:31:45;32.00;79.30
18575;DHT22;9417;16.484;102.872;2023-07-22T05:33:52;32.10;79.40
18575;DHT22;9417;16.484;102.872;2023-07-22T05:35:58;32.20;78.40
18575;DHT22;9417;16.484;102.872;2023-07-22T05:38:07;32.10;78.90
18575;DHT22;9417;16.484;102.872;2023-07-22T05:40:15;32.20;79.10
18575;DHT22;9417;16.484;102.872;2023-07-22T05:42:22;32.30;77.10
18575;DHT22;9417;16.484;102.872;2023-07-22T05:44:29;32.20;77.10
18575;DHT22;9417;16.484;102.872;2023-07-22T05:46:36;32.20;78.10
18575;DHT22;9417;16.484;102.872;2023-07-22T05:48:44;32.30;77.70
18575;DHT22;9417;16.484;102.872;2023-07-22T05:50:51;32.30;76.60
18575;DHT22;9417;16.484;102.872;2023-07-22T05:52:58;32.30;76.70
18575;DHT22;9417;16.484;102.872;2023-07-22T05:55:08;32.40;77.10
18575;DHT22;9417;16.484;102.872;2023-07-22T05:57:15;32.50;77.20
18575;DHT22;9417;16.484;102.872;2023-07-22T05:59:22;32.60;77.30
18575;DHT22;9417;16.484;102.872;2023-07-22T06:01:30;32.80;76.80
18575;DHT22;9417;16.484;102.872;2023-07-22T06:03:37;32.90;75.00
18575;DHT22;9417;16.484;102.872;2023-07-22T06:05:44;32.90;75.10
18575;DHT22;9417;16.484;102.872;2023-07-22T06:07:52;32.90;75.30
18575;DHT22;9417;16.484;102.872;2023-07-22T06:09:59;32.90;74.80
18575;DHT22;9417;16.484;102.872;2023-07-22T06:12:09;33.00;74.30
18575;DHT22;9417;16.484;102.872;2023-07-22T06:14:16;33.10;75.30
18575;DHT22;9417;16.484;102.872;2023-07-22T06:16:23;33.20;75.30
18575;DHT22;9417;16.484;102.872;2023-07-22T06:18:31;33.30;74.20
18575;DHT22;9417;16.484;102.872;2023-07-22T06:20:38;33.30;73.30
18575;DHT22;9417;16.484;102.872;2023-07-22T06:22:45;33.30;72.90
18575;DHT22;9417;16.484;102.872;2023-07-22T06:24:52;33.30;74.10
18575;DHT22;9417;16.484;102.872;2023-07-22T06:26:59;33.40;73.30
18575;DHT22;9417;16.484;102.872;2023-07-22T06:29:07;33.50;72.30
18575;DHT22;9417;16.484;102.872;2023-07-22T06:31:14;33.50;71.40
18575;DHT22;9417;16.484;102.872;2023-07-22T06:33:23;33.60;71.30
18575;DHT22;9417;16.484;102.872;2023-07-22T06:35:30;33.70;70.10
18575;DHT22;9417;16.484;102.872;2023-07-22T06:37:38;33.70;70.80
18575;DHT22;9417;16.484;102.872;2023-07-22T06:39:45;33.70;71.90
18575;DHT22;9417;16.484;102.872;2023-07-22T06:41:52;33.70;72.30
18575;DHT22;9417;16.484;102.872;2023-07-22T06:43:59;33.80;71.60
18575;DHT22;9417;16.484;102.872;2023-07-22T06:46:08;33.90;71.20
18575;DHT22;9417;16.484;102.872;2023-07-22T06:48:15;33.90;71.70
18575;DHT22;9417;16.484;102.872;2023-07-22T06:50:23;34.00;72.30
18575;DHT22;9417;16.484;102.872;2023-07-22T06:52:30;34.00;72.40
18575;DHT22;9417;16.484;102.872;2023-07-22T06:54:38;34.10;72.40
18575;DHT22;9417;16.484;102.872;2023-07-22T06:56:45;34.10;71.50
18575;DHT22;9417;16.484;102.872;2023-07-22T06:58:52;34.20;71.00
18575;DHT22;9417;16.484;102.872;2023-07-22T07:00:59;34.20;69.80
18575;DHT22;9417;16.484;102.872;2023-07-22T07:03:09;34.20;68.70
18575;DHT22;9417;16.484;102.872;2023-07-22T07:05:16;34.20;67.70
18575;DHT22;9417;16.484;102.872;2023-07-22T07:07:23;34.10;68.30
18575;DHT22;9417;16.484;102.872;2023-07-22T07:09:30;33.90;69.40
18575;DHT22;9417;16.484;102.872;2023-07-22T07:11:37;33.70;70.10
18575;DHT22;9417;16.484;102.872;2023-07-22T07:13:44;33.70;70.70
18575;DHT22;9417;16.484;102.872;2023-07-22T07:15:52;33.90;71.30
18575;DHT22;9417;16.484;102.872;2023-07-22T07:17:59;34.00;71.20
18575;DHT22;9417;16.484;102.872;2023-07-22T07:20:09;33.90;70.70
18575;DHT22;9417;16.484;102.872;2023-07-22T07:22:16;33.80;70.50
18575;DHT22;9417;16.484;102.872;2023-07-22T07:24:23;33.60;71.00
18575;DHT22;9417;16.484;102.872;2023-07-22T07:26:32;33.60;70.90
18575;DHT22;9417;16.484;102.872;2023-07-22T07:28:39;33.60;70.40
18575;DHT22;9417;16.484;102.872;2023-07-22T07:30:46;33.70;70.50
18575;DHT22;9417;16.484;102.872;2023-07-22T07:32:55;33.70;71.20
18575;DHT22;9417;16.484;102.872;2023-07-22T07:35:02;33.80;70.50
18575;DHT22;9417;16.484;102.872;2023-07-22T07:37:13;33.90;70.30
18575;DHT22;9417;16.484;102.872;2023-07-22T07:39:19;34.00;69.60
18575;DHT22;9417;16.484;102.872;2023-07-22T07:41:27;34.00;69.90
18575;DHT22;9417;16.484;102.872;2023-07-22T07:43:34;34.10;69.80
18575;DHT22;9417;16.484;102.872;2023-07-22T07:45:42;34.10;69.90
18575;DHT22;9417;16.484;102.872;2023-07-22T07:47:50;34.10;68.80
18575;DHT22;9417;16.484;102.872;2023-07-22T07:49:57;34.10;69.40
18575;DHT22;9417;16.484;102.872;2023-07-22T07:52:05;34.20;69.30
18575;DHT22;9417;16.484;102.872;2023-07-22T07:54:14;34.30;68.90
18575;DHT22;9417;16.484;102.872;2023-07-22T07:56:21;34.40;68.30
18575;DHT22;9417;16.484;102.872;2023-07-22T07:58:29;34.40;67.50
18575;DHT22;9417;16.484;102.872;2023-07-22T08:00:35;34.20;67.20
18575;DHT22;9417;16.484;102.872;2023-07-22T08:02:42;34.00;67.80
18575;DHT22;9417;16.484;102.872;2023-07-22T08:04:49;33.90;68.60
18575;DHT22;9417;16.484;102.872;2023-07-22T08:06:56;33.90;68.80
18575;DHT22;9417;16.484;102.872;2023-07-22T08:09:03;33.90;68.90
18575;DHT22;9417;16.484;102.872;2023-07-22T08:11:14;34.10;69.20
18575;DHT22;9417;16.484;102.872;2023-07-22T08:13:21;34.30;69.40
18575;DHT22;9417;16.484;102.872;2023-07-22T08:15:29;34.40;69.40
18575;DHT22;9417;16.484;102.872;2023-07-22T08:17:36;34.50;69.20
18575;DHT22;9417;16.484;102.872;2023-07-22T08:19:42;34.50;68.10
18575;DHT22;9417;16.484;102.872;2023-07-22T08:21:49;34.50;67.60
18575;DHT22;9417;16.484;102.872;2023-07-22T08:23:57;34.60;67.80
18575;DHT22;9417;16.484;102.872;2023-07-22T08:26:03;34.60;68.20
18575;DHT22;9417;16.484;102.872;2023-07-22T08:28:12;34.70;68.20
18575;DHT22;9417;16.484;102.872;2023-07-22T08:30:20;34.80;67.80
18575;DHT22;9417;16.484;102.872;2023-07-22T08:32:27;34.70;67.10
18575;DHT22;9417;16.484;102.872;2023-07-22T08:34:34;34.80;66.80
18575;DHT22;9417;16.484;102.872;2023-07-22T08:36:42;34.80;66.30
18575;DHT22;9417;16.484;102.872;2023-07-22T08:38:49;34.70;66.50
18575;DHT22;9417;16.484;102.872;2023-07-22T08:40:56;34.60;66.80
18575;DHT22;9417;16.484;102.872;2023-07-22T08:43:04;34.60;67.40
18575;DHT22;9417;16.484;102.872;2023-07-22T08:45:12;34.60;67.00
18575;DHT22;9417;16.484;102.872;2023-07-22T08:47:21;34.60;67.30
18575;DHT22;9417;16.484;102.872;2023-07-22T08:49:29;34.50;67.70
18575;DHT22;9417;16.484;102.872;2023-07-22T08:51:37;34.60;67.10
18575;DHT22;9417;16.484;102.872;2023-07-22T08:53:45;34.60;65.60
18575;DHT22;9417;16.484;102.872;2023-07-22T08:56:08;34.60;65.60
18575;DHT22;9417;16.484;102.872;2023-07-22T08:58:15;34.60;65.80
18575;DHT22;9417;16.484;102.872;2023-07-22T09:00:25;34.60;65.90
18575;DHT22;9417;16.484;102.872;2023-07-22T09:02:31;34.70;65.90
18575;DHT22;9417;16.484;102.872;2023-07-22T09:04:39;34.70;66.50
18575;DHT22;9417;16.484;102.872;2023-07-22T09:06:47;34.70;66.10
18575;DHT22;9417;16.484;102.872;2023-07-22T09:08:56;34.60;66.40
18575;DHT22;9417;16.484;102.872;2023-07-22T09:11:03;34.50;66.90
18575;DHT22;9417;16.484;102.872;2023-07-22T09:13:11;34.40;67.00
18575;DHT22;9417;16.484;102.872;2023-07-22T09:15:20;34.30;67.30
18575;DHT22;9417;16.484;102.872;2023-07-22T09:17:29;34.20;67.50
18575;DHT22;9417;16.484;102.872;2023-07-22T09:19:37;34.00;67.90
18575;DHT22;9417;16.484;102.872;2023-07-22T09:21:45;33.90;67.90
18575;DHT22;9417;16.484;102.872;2023-07-22T09:23:52;33.90;68.30
18575;DHT22;9417;16.484;102.872;2023-07-22T09:26:09;33.90;68.50
18575;DHT22;9417;16.484;102.872;2023-07-22T09:28:17;34.00;68.20
18575;DHT22;9417;16.484;102.872;2023-07-22T09:30:26;34.10;68.20
18575;DHT22;9417;16.484;102.872;2023-07-22T09:32:37;34.20;67.90
18575;DHT22;9417;16.484;102.872;2023-07-22T09:34:55;34.20;68.00
18575;DHT22;9417;16.484;102.872;2023-07-22T09:37:02;34.20;67.30
18575;DHT22;9417;16.484;102.872;2023-07-22T09:39:10;34.10;67.00
18575;DHT22;9417;16.484;102.872;2023-07-22T09:41:20;34.00;67.10
18575;DHT22;9417;16.484;102.872;2023-07-22T09:43:27;34.00;66.70
18575;DHT22;9417;16.484;102.872;2023-07-22T09:45:35;33.90;67.40
18575;DHT22;9417;16.484;102.872;2023-07-22T09:47:46;33.80;68.40
18575;DHT22;9417;16.484;102.872;2023-07-22T09:49:54;33.80;68.40
18575;DHT22;9417;16.484;102.872;2023-07-22T09:52:10;33.70;68.50
18575;DHT22;9417;16.484;102.872;2023-07-22T09:54:19;33.70;68.20
18575;DHT22;9417;16.484;102.872;2023-07-22T09:56:26;33.60;68.50
18575;DHT22;9417;16.484;102.872;2023-07-22T09:58:34;33.50;68.90
18575;DHT22;9417;16.484;102.872;2023-07-22T10:00:45;33.50;69.40
18575;DHT22;9417;16.484;102.872;2023-07-22T10:02:57;33.40;69.30
18575;DHT22;9417;16.484;102.872;2023-07-22T10:05:05;33.40;69.40
18575;DHT22;9417;16.484;102.872;2023-07-22T10:07:13;33.40;69.40
18575;DHT22;9417;16.484;102.872;2023-07-22T10:09:22;33.40;69.80
18575;DHT22;9417;16.484;102.872;2023-07-22T10:11:31;33.30;69.40
18575;DHT22;9417;16.484;102.872;2023-07-22T10:13:39;33.30;69.20
18575;DHT22;9417;16.484;102.872;2023-07-22T10:15:46;33.30;69.80
18575;DHT22;9417;16.484;102.872;2023-07-22T10:17:56;33.20;70.50
18575;DHT22;9417;16.484;102.872;2023-07-22T10:20:04;33.20;71.20
18575;DHT22;9417;16.484;102.872;2023-07-22T10:22:12;33.10;71.20
18575;DHT22;9417;16.484;102.872;2023-07-22T10:24:20;33.00;71.20
18575;DHT22;9417;16.484;102.872;2023-07-22T10:26:29;33.10;71.40
18575;DHT22;9417;16.484;102.872;2023-07-22T10:28:51;33.00;71.80
18575;DHT22;9417;16.484;102.872;2023-07-22T10:30:58;32.90;72.20
18575;DHT22;9417;16.484;102.872;2023-07-22T10:33:09;32.90;72.50
18575;DHT22;9417;16.484;102.872;2023-07-22T10:35:22;32.90;72.70
18575;DHT22;9417;16.484;102.872;2023-07-22T10:37:33;32.90;73.20
18575;DHT22;9417;16.484;102.872;2023-07-22T10:39:40;32.80;73.60
18575;DHT22;9417;16.484;102.872;2023-07-22T10:41:47;32.80;74.00
18575;DHT22;9417;16.484;102.872;2023-07-22T10:43:56;32.70;74.30
18575;DHT22;9417;16.484;102.872;2023-07-22T10:46:07;32.70;74.10
18575;DHT22;9417;16.484;102.872;2023-07-22T10:48:17;32.70;73.90
18575;DHT22;9417;16.484;102.872;2023-07-22T10:50:41;32.70;74.30
18575;DHT22;9417;16.484;102.872;2023-07-22T10:52:49;32.70;74.50
18575;DHT22;9417;16.484;102.872;2023-07-22T10:54:57;32.60;74.60
18575;DHT22;9417;16.484;102.872;2023-07-22T10:57:04;32.60;74.90
18575;DHT22;9417;16.484;102.872;2023-07-22T10:59:29;32.60;74.70
18575;DHT22;9417;16.484;102.872;2023-07-22T11:01:38;32.50;75.10
18575;DHT22;9417;16.484;102.872;2023-07-22T11:04:07;32.50;75.60
18575;DHT22;9417;16.484;102.872;2023-07-22T11:06:15;32.50;75.70
18575;DHT22;9417;16.484;102.872;2023-07-22T11:08:36;32.60;75.80
18575;DHT22;9417;16.484;102.872;2023-07-22T11:11:01;32.50;75.20
18575;DHT22;9417;16.484;102.872;2023-07-22T11:13:11;32.50;75.30
18575;DHT22;9417;16.484;102.872;2023-07-22T11:15:18;32.60;75.20
18575;DHT22;9417;16.484;102.872;2023-07-22T11:17:30;32.50;75.10
18575;DHT22;9417;16.484;102.872;2023-07-22T11:19:41;32.50;75.20
18575;DHT22;9417;16.484;102.872;2023-07-22T11:21:49;32.50;75.40
18575;DHT22;9417;16.484;102.872;2023-07-22T11:23:57;32.50;75.60
18575;DHT22;9417;16.484;102.872;2023-07-22T11:26:04;32.40;76.30
18575;DHT22;9417;16.484;102.872;2023-07-22T11:28:13;32.30;77.10
18575;DHT22;9417;16.484;102.872;2023-07-22T11:30:23;32.30;77.70
18575;DHT22;9417;16.484;102.872;2023-07-22T11:32:31;32.20;78.10
18575;DHT22;9417;16.484;102.872;2023-07-22T11:34:40;32.10;78.70
18575;DHT22;9417;16.484;102.872;2023-07-22T11:36:51;32.10;79.60
18575;DHT22;9417;16.484;102.872;2023-07-22T11:39:02;32.00;80.50
18575;DHT22;9417;16.484;102.872;2023-07-22T11:41:10;32.00;80.50
18575;DHT22;9417;16.484;102.872;2023-07-22T11:43:22;31.90;81.00
18575;DHT22;9417;16.484;102.872;2023-07-22T11:45:28;31.90;81.20
18575;DHT22;9417;16.484;102.872;2023-07-22T11:47:35;31.80;81.50
18575;DHT22;9417;16.484;102.872;2023-07-22T11:49:46;31.70;81.90
18575;DHT22;9417;16.484;102.872;2023-07-22T11:51:56;31.60;83.10
18575;DHT22;9417;16.484;102.872;2023-07-22T11:54:02;31.60;83.80
18575;DHT22;9417;16.484;102.872;2023-07-22T11:56:09;31.50;83.80
18575;DHT22;9417;16.484;102.872;2023-07-22T11:58:24;31.40;84.30
18575;DHT22;9417;16.484;102.872;2023-07-22T12:00:32;31.40;86.40
18575;DHT22;9417;16.484;102.872;2023-07-22T12:02:38;31.30;86.70
18575;DHT22;9417;16.484;102.872;2023-07-22T12:04:52;31.20;86.60
18575;DHT22;9417;16.484;102.872;2023-07-22T12:06:59;31.20;87.50
18575;DHT22;9417;16.484;102.872;2023-07-22T12:09:07;31.20;88.00
18575;DHT22;9417;16.484;102.872;2023-07-22T12:11:17;31.10;88.40
18575;DHT22;9417;16.484;102.872;2023-07-22T12:13:24;31.20;89.20
18575;DHT22;9417;16.484;102.872;2023-07-22T12:15:30;31.10;89.10
18575;DHT22;9417;16.484;102.872;2023-07-22T12:17:46;31.00;88.50
18575;DHT22;9417;16.484;102.872;2023-07-22T12:19:55;31.00;88.30
18575;DHT22;9417;16.484;102.872;2023-07-22T12:22:01;31.00;88.50
18575;DHT22;9417;16.484;102.872;2023-07-22T12:24:08;31.00;88.40
18575;DHT22;9417;16.484;102.872;2023-07-22T12:26:14;30.90;88.30
18575;DHT22;9417;16.484;102.872;2023-07-22T12:28:21;30.90;88.30
18575;DHT22;9417;16.484;102.872;2023-07-22T12:30:27;30.90;89.00
18575;DHT22;9417;16.484;102.872;2023-07-22T12:32:35;30.90;89.40
18575;DHT22;9417;16.484;102.872;2023-07-22T12:34:41;30.80;89.60
18575;DHT22;9417;16.484;102.872;2023-07-22T12:36:50;30.80;89.90
18575;DHT22;9417;16.484;102.872;2023-07-22T12:38:56;30.80;90.00
18575;DHT22;9417;16.484;102.872;2023-07-22T12:41:02;30.80;90.40
18575;DHT22;9417;16.484;102.872;2023-07-22T12:43:09;30.80;90.40
18575;DHT22;9417;16.484;102.872;2023-07-22T12:45:15;30.60;89.90
18575;DHT22;9417;16.484;102.872;2023-07-22T12:47:21;30.60;90.10
18575;DHT22;9417;16.484;102.872;2023-07-22T12:49:28;30.60;90.70
18575;DHT22;9417;16.484;102.872;2023-07-22T12:51:34;30.60;91.30
18575;DHT22;9417;16.484;102.872;2023-07-22T12:53:41;30.60;91.70
18575;DHT22;9417;16.484;102.872;2023-07-22T12:55:47;30.60;91.80
18575;DHT22;9417;16.484;102.872;2023-07-22T12:57:53;30.60;91.30
18575;DHT22;9417;16.484;102.872;2023-07-22T13:00:00;30.60;91.40
18575;DHT22;9417;16.484;102.872;2023-07-22T13:02:08;30.60;91.30
18575;DHT22;9417;16.484;102.872;2023-07-22T13:04:14;30.60;92.00
18575;DHT22;9417;16.484;102.872;2023-07-22T13:06:21;30.60;92.30
18575;DHT22;9417;16.484;102.872;2023-07-22T13:08:28;30.60;92.50
18575;DHT22;9417;16.484;102.872;2023-07-22T13:10:36;30.60;92.10
18575;DHT22;9417;16.484;102.872;2023-07-22T13:12:43;30.60;91.90
18575;DHT22;9417;16.484;102.872;2023-07-22T13:14:49;30.60;92.00
18575;DHT22;9417;16.484;102.872;2023-07-22T13:16:55;30.60;92.40